sensor_id;sensor_type;location;lat;lon;timestamp;P1;durP1;ratioP1;P2;durP2;ratioP2
48897;SDS011;34713;50.038;20.000;2024-01-30T00:02:19;30.60;;;19.00;;
48897;SDS011;34713;50.038;20.000;2024-01-30T00:04:48;33.80;;;18.90;;
48897;SDS011;34713;50.038;20.000;2024-01-30T00:07:15;35.30;;;20.40;;
48897;SDS011;34713;50.038;20.000;2024-01-30T00:09:42;34.00;;;19.10;;
48897;SDS011;34713;50.038;20.000;2024-01-30T00:12:08;35.10;;;20.00;;
48897;SDS011;34713;50.038;20.000;2024-01-30T00:14:35;33.50;;;19.50;;
48897;SDS011;34713;50.038;20.000;2024-01-30T00:17:02;30.70;;;18.90;;
48897;SDS011;34713;50.038;20.000;2024-01-30T00:19:29;32.70;;;19.30;;
48897;SDS011;34713;50.038;20.000;2024-01-30T00:21:55;37.40;;;21.80;;
48897;SDS011;34713;50.038;20.000;2024-01-30T00:24:22;33.00;;;19.50;;
48897;SDS011;34713;50.038;20.000;2024-01-30T00:26:49;32.70;;;19.70;;
48897;SDS011;34713;50.038;20.000;2024-01-30T00:29:18;35.10;;;18.80;;
48897;SDS011;34713;50.038;20.000;2024-01-30T00:31:49;33.50;;;19.80;;
48897;SDS011;34713;50.038;20.000;2024-01-30T00:34:15;31.30;;;19.80;;
48897;SDS011;34713;50.038;20.000;2024-01-30T00:36:42;35.60;;;20.20;;
48897;SDS011;34713;50.038;20.000;2024-01-30T00:39:09;35.40;;;20.40;;
48897;SDS011;34713;50.038;20.000;2024-01-30T00:41:36;30.50;;;18.20;;
48897;SDS011;34713;50.038;20.000;2024-01-30T00:44:02;32.40;;;19.80;;
48897;SDS011;34713;50.038;20.000;2024-01-30T00:46:29;34.00;;;19.80;;
48897;SDS011;34713;50.038;20.000;2024-01-30T00:48:56;34.90;;;20.30;;
48897;SDS011;34713;50.038;20.000;2024-01-30T00:51:22;31.70;;;18.70;;
48897;SDS011;34713;50.038;20.000;2024-01-30T00:53:49;29.70;;;19.60;;
48897;SDS011;34713;50.038;20.000;2024-01-30T00:56:16;34.10;;;20.00;;
48897;SDS011;34713;50.038;20.000;2024-01-30T00:58:44;34.60;;;20.90;;
48897;SDS011;34713;50.038;20.000;2024-01-30T01:01:14;36.60;;;20.80;;
48897;SDS011;34713;50.038;20.000;2024-01-30T01:03:43;37.90;;;21.60;;
48897;SDS011;34713;50.038;20.000;2024-01-30T01:06:30;33.00;;;20.00;;
48897;SDS011;34713;50.038;20.000;2024-01-30T01:08:59;32.40;;;19.40;;
48897;SDS011;34713;50.038;20.000;2024-01-30T01:11:26;34.20;;;19.60;;
48897;SDS011;34713;50.038;20.000;2024-01-30T01:13:52;36.80;;;21.40;;
48897;SDS011;34713;50.038;20.000;2024-01-30T01:16:19;35.10;;;20.90;;
48897;SDS011;34713;50.038;20.000;2024-01-30T01:18:46;33.00;;;21.00;;
48897;SDS011;34713;50.038;20.000;2024-01-30T01:21:13;32.20;;;20.20;;
48897;SDS011;34713;50.038;20.000;2024-01-30T01:23:43;34.90;;;20.40;;
48897;SDS011;34713;50.038;20.000;2024-01-30T01:26:09;35.60;;;20.40;;
48897;SDS011;34713;50.038;20.000;2024-01-30T01:28:36;36.60;;;21.40;;
48897;SDS011;34713;50.038;20.000;2024-01-30T01:31:03;36.60;;;21.50;;
48897;SDS011;34713;50.038;20.000;2024-01-30T01:33:32;35.70;;;21.80;;
48897;SDS011;34713;50.038;20.000;2024-01-30T01:36:00;39.80;;;21.50;;
48897;SDS011;34713;50.038;20.000;2024-01-30T01:38:28;36.80;;;21.30;;
48897;SDS011;34713;50.038;20.000;2024-01-30T01:40:55;35.60;;;22.20;;
48897;SDS011;34713;50.038;20.000;2024-01-30T01:43:22;36.70;;;21.40;;
48897;SDS011;34713;50.038;20.000;2024-01-30T01:45:48;43.60;;;24.00;;
48897;SDS011;34713;50.038;20.000;2024-01-30T01:48:15;38.90;;;23.00;;
48897;SDS011;34713;50.038;20.000;2024-01-30T01:50:42;36.60;;;21.80;;
48897;SDS011;34713;50.038;20.000;2024-01-30T01:53:09;41.70;;;22.10;;
48897;SDS011;34713;50.038;20.000;2024-01-30T01:55:36;35.50;;;22.10;;
48897;SDS011;34713;50.038;20.000;2024-01-30T01:58:03;41.80;;;23.60;;
48897;SDS011;34713;50.038;20.000;2024-01-30T02:00:31;43.40;;;24.30;;
48897;SDS011;34713;50.038;20.000;2024-01-30T02:03:00;44.10;;;23.90;;
48897;SDS011;34713;50.038;20.000;2024-01-30T02:05:27;41.30;;;23.00;;
48897;SDS011;34713;50.038;20.000;2024-01-30T02:07:54;46.30;;;24.50;;
48897;SDS011;34713;50.038;20.000;2024-01-30T02:10:20;43.70;;;21.70;;
48897;SDS011;34713;50.038;20.000;2024-01-30T02:12:48;46.30;;;24.50;;
48897;SDS011;34713;50.038;20.000;2024-01-30T02:15:15;39.30;;;21.90;;
48897;SDS011;34713;50.038;20.000;2024-01-30T02:17:41;44.00;;;22.80;;
48897;SDS011;34713;50.038;20.000;2024-01-30T02:20:08;38.00;;;22.20;;
48897;SDS011;34713;50.038;20.000;2024-01-30T02:22:35;38.00;;;22.60;;
48897;SDS011;34713;50.038;20.000;2024-01-30T02:25:03;36.50;;;23.50;;
48897;SDS011;34713;50.038;20.000;2024-01-30T02:27:29;38.10;;;21.30;;
48897;SDS011;34713;50.038;20.000;2024-01-30T02:29:56;43.10;;;22.70;;
48897;SDS011;34713;50.038;20.000;2024-01-30T02:32:23;34.90;;;21.60;;
48897;SDS011;34713;50.038;20.000;2024-01-30T02:34:49;36.80;;;22.00;;
48897;SDS011;34713;50.038;20.000;2024-01-30T02:37:16;34.70;;;20.60;;
48897;SDS011;34713;50.038;20.000;2024-01-30T02:39:43;40.50;;;22.00;;
48897;SDS011;34713;50.038;20.000;2024-01-30T02:42:10;37.90;;;22.30;;
48897;SDS011;34713;50.038;20.000;2024-01-30T02:44:36;40.20;;;22.50;;
48897;SDS011;34713;50.038;20.000;2024-01-30T02:47:03;39.70;;;22.60;;
48897;SDS011;34713;50.038;20.000;2024-01-30T02:49:30;38.30;;;22.00;;
48897;SDS011;34713;50.038;20.000;2024-01-30T02:51:57;36.20;;;21.20;;
48897;SDS011;34713;50.038;20.000;2024-01-30T02:54:23;44.10;;;23.10;;
48897;SDS011;34713;50.038;20.000;2024-01-30T02:56:50;39.90;;;21.80;;
48897;SDS011;34713;50.038;20.000;2024-01-30T02:59:16;42.40;;;23.20;;
48897;SDS011;34713;50.038;20.000;2024-01-30T03:01:43;43.90;;;23.50;;
48897;SDS011;34713;50.038;20.000;2024-01-30T03:04:10;40.50;;;24.40;;
48897;SDS011;34713;50.038;20.000;2024-01-30T03:06:37;39.00;;;22.70;;
48897;SDS011;34713;50.038;20.000;2024-01-30T03:09:04;40.60;;;22.40;;
48897;SDS011;34713;50.038;20.000;2024-01-30T03:11:31;37.50;;;22.00;;
48897;SDS011;34713;50.038;20.000;2024-01-30T03:13:57;38.40;;;22.10;;
48897;SDS011;34713;50.038;20.000;2024-01-30T03:16:24;41.80;;;23.70;;
48897;SDS011;34713;50.038;20.000;2024-01-30T03:18:51;43.60;;;23.70;;
48897;SDS011;34713;50.038;20.000;2024-01-30T03:21:17;39.80;;;22.80;;
48897;SDS011;34713;50.038;20.000;2024-01-30T03:23:44;43.50;;;23.90;;
48897;SDS011;34713;50.038;20.000;2024-01-30T03:26:11;40.40;;;23.80;;
48897;SDS011;34713;50.038;20.000;2024-01-30T03:28:38;43.40;;;22.80;;
48897;SDS011;34713;50.038;20.000;2024-01-30T03:31:05;43.90;;;25.10;;
48897;SDS011;34713;50.038;20.000;2024-01-30T03:33:32;44.50;;;24.10;;
48897;SDS011;34713;50.038;20.000;2024-01-30T03:36:02;47.00;;;25.60;;
48897;SDS011;34713;50.038;20.000;2024-01-30T03:38:29;45.30;;;25.20;;
48897;SDS011;34713;50.038;20.000;2024-01-30T03:40:58;41.00;;;23.90;;
48897;SDS011;34713;50.038;20.000;2024-01-30T03:43:26;43.80;;;25.30;;
48897;SDS011;34713;50.038;20.000;2024-01-30T03:45:53;41.90;;;25.40;;
48897;SDS011;34713;50.038;20.000;2024-01-30T03:48:20;40.60;;;22.60;;
48897;SDS011;34713;50.038;20.000;2024-01-30T03:50:47;43.40;;;24.50;;
48897;SDS011;34713;50.038;20.000;2024-01-30T03:53:14;44.10;;;25.10;;
48897;SDS011;34713;50.038;20.000;2024-01-30T03:55:40;42.60;;;23.80;;
48897;SDS011;34713;50.038;20.000;2024-01-30T03:58:07;40.10;;;23.50;;
48897;SDS011;34713;50.038;20.000;2024-01-30T04:00:34;39.90;;;23.30;;
48897;SDS011;34713;50.038;20.000;2024-01-30T04:03:01;43.50;;;24.70;;
48897;SDS011;34713;50.038;20.000;2024-01-30T04:05:28;41.60;;;24.20;;
48897;SDS011;34713;50.038;20.000;2024-01-30T04:07:55;42.40;;;23.80;;
48897;SDS011;34713;50.038;20.000;2024-01-30T04:10:21;43.80;;;24.40;;
48897;SDS011;34713;50.038;20.000;2024-01-30T04:12:49;44.70;;;24.70;;
48897;SDS011;34713;50.038;20.000;2024-01-30T04:15:16;40.20;;;24.50;;
48897;SDS011;34713;50.038;20.000;2024-01-30T04:17:44;45.10;;;26.10;;
48897;SDS011;34713;50.038;20.000;2024-01-30T04:20:14;45.20;;;25.70;;
48897;SDS011;34713;50.038;20.000;2024-01-30T04:22:43;39.80;;;23.70;;
48897;SDS011;34713;50.038;20.000;2024-01-30T04:25:11;44.40;;;24.90;;
48897;SDS011;34713;50.038;20.000;2024-01-30T04:27:41;48.30;;;26.20;;
48897;SDS011;34713;50.038;20.000;2024-01-30T04:30:08;47.00;;;26.80;;
48897;SDS011;34713;50.038;20.000;2024-01-30T04:32:35;43.80;;;25.30;;
48897;SDS011;34713;50.038;20.000;2024-01-30T04:35:02;43.00;;;25.20;;
48897;SDS011;34713;50.038;20.000;2024-01-30T04:37:29;47.00;;;26.80;;
48897;SDS011;34713;50.038;20.000;2024-01-30T04:39:56;47.80;;;26.60;;
48897;SDS011;34713;50.038;20.000;2024-01-30T04:42:23;45.50;;;26.40;;
48897;SDS011;34713;50.038;20.000;2024-01-30T04:44:49;44.30;;;25.60;;
48897;SDS011;34713;50.038;20.000;2024-01-30T04:47:16;54.70;;;29.20;;
48897;SDS011;34713;50.038;20.000;2024-01-30T04:49:43;48.70;;;27.00;;
48897;SDS011;34713;50.038;20.000;2024-01-30T04:52:09;55.20;;;30.10;;
48897;SDS011;34713;50.038;20.000;2024-01-30T04:54:36;52.20;;;29.60;;
48897;SDS011;34713;50.038;20.000;2024-01-30T04:57:06;48.50;;;28.80;;
48897;SDS011;34713;50.038;20.000;2024-01-30T04:59:35;51.10;;;26.20;;
48897;SDS011;34713;50.038;20.000;2024-01-30T05:02:02;53.10;;;27.90;;
48897;SDS011;34713;50.038;20.000;2024-01-30T05:04:29;58.40;;;29.00;;
48897;SDS011;34713;50.038;20.000;2024-01-30T05:06:56;52.00;;;27.00;;
48897;SDS011;34713;50.038;20.000;2024-01-30T05:09:23;56.30;;;28.10;;
48897;SDS011;34713;50.038;20.000;2024-01-30T05:11:50;50.10;;;28.70;;
48897;SDS011;34713;50.038;20.000;2024-01-30T05:14:16;53.20;;;28.60;;
48897;SDS011;34713;50.038;20.000;2024-01-30T05:16:44;49.60;;;28.40;;
48897;SDS011;34713;50.038;20.000;2024-01-30T05:19:13;51.70;;;28.30;;
48897;SDS011;34713;50.038;20.000;2024-01-30T05:21:40;51.00;;;30.00;;
48897;SDS011;34713;50.038;20.000;2024-01-30T05:24:07;53.00;;;28.60;;
48897;SDS011;34713;50.038;20.000;2024-01-30T05:26:36;55.60;;;29.90;;
48897;SDS011;34713;50.038;20.000;2024-01-30T05:29:03;48.20;;;27.80;;
48897;SDS011;34713;50.038;20.000;2024-01-30T05:31:29;55.70;;;30.00;;
48897;SDS011;34713;50.038;20.000;2024-01-30T05:33:56;49.70;;;29.50;;
48897;SDS011;34713;50.038;20.000;2024-01-30T05:36:26;54.10;;;29.10;;
48897;SDS011;34713;50.038;20.000;2024-01-30T05:38:52;56.90;;;29.10;;
48897;SDS011;34713;50.038;20.000;2024-01-30T05:41:19;51.30;;;29.80;;
48897;SDS011;34713;50.038;20.000;2024-01-30T05:43:47;51.80;;;29.00;;
48897;SDS011;34713;50.038;20.000;2024-01-30T05:46:14;54.90;;;30.50;;
48897;SDS011;34713;50.038;20.000;2024-01-30T05:48:41;50.60;;;30.10;;
48897;SDS011;34713;50.038;20.000;2024-01-30T05:51:08;59.80;;;32.00;;
48897;SDS011;34713;50.038;20.000;2024-01-30T05:53:34;57.70;;;31.70;;
48897;SDS011;34713;50.038;20.000;2024-01-30T05:56:01;58.40;;;31.40;;
48897;SDS011;34713;50.038;20.000;2024-01-30T05:58:32;58.90;;;28.70;;
48897;SDS011;34713;50.038;20.000;2024-01-30T06:00:58;56.90;;;30.40;;
48897;SDS011;34713;50.038;20.000;2024-01-30T06:03:25;55.30;;;31.20;;
48897;SDS011;34713;50.038;20.000;2024-01-30T06:05:52;56.70;;;29.30;;
48897;SDS011;34713;50.038;20.000;2024-01-30T06:08:18;55.60;;;30.40;;
48897;SDS011;34713;50.038;20.000;2024-01-30T06:10:45;54.90;;;30.50;;
48897;SDS011;34713;50.038;20.000;2024-01-30T06:13:12;56.60;;;30.00;;
48897;SDS011;34713;50.038;20.000;2024-01-30T06:15:38;55.20;;;31.40;;
48897;SDS011;34713;50.038;20.000;2024-01-30T06:18:05;61.70;;;31.10;;
48897;SDS011;34713;50.038;20.000;2024-01-30T06:20:32;60.30;;;32.80;;
48897;SDS011;34713;50.038;20.000;2024-01-30T06:22:58;53.10;;;30.10;;
48897;SDS011;34713;50.038;20.000;2024-01-30T06:25:25;59.30;;;30.90;;
48897;SDS011;34713;50.038;20.000;2024-01-30T06:27:52;60.20;;;31.70;;
48897;SDS011;34713;50.038;20.000;2024-01-30T06:30:18;66.70;;;32.30;;
48897;SDS011;34713;50.038;20.000;2024-01-30T06:32:45;56.60;;;30.50;;
48897;SDS011;34713;50.038;20.000;2024-01-30T06:35:11;52.90;;;29.40;;
48897;SDS011;34713;50.038;20.000;2024-01-30T06:37:43;63.20;;;34.20;;
48897;SDS011;34713;50.038;20.000;2024-01-30T06:40:10;61.20;;;32.90;;
48897;SDS011;34713;50.038;20.000;2024-01-30T06:42:38;65.20;;;34.60;;
48897;SDS011;34713;50.038;20.000;2024-01-30T06:45:04;62.20;;;35.10;;
48897;SDS011;34713;50.038;20.000;2024-01-30T06:47:32;56.50;;;31.90;;
48897;SDS011;34713;50.038;20.000;2024-01-30T06:49:58;68.50;;;33.40;;
48897;SDS011;34713;50.038;20.000;2024-01-30T06:52:37;60.30;;;32.60;;
48897;SDS011;34713;50.038;20.000;2024-01-30T06:55:04;60.00;;;33.80;;
48897;SDS011;34713;50.038;20.000;2024-01-30T06:57:30;65.80;;;33.10;;
48897;SDS011;34713;50.038;20.000;2024-01-30T06:59:57;56.60;;;32.20;;
48897;SDS011;34713;50.038;20.000;2024-01-30T07:02:24;58.60;;;31.90;;
48897;SDS011;34713;50.038;20.000;2024-01-30T07:04:51;54.40;;;31.00;;
48897;SDS011;34713;50.038;20.000;2024-01-30T07:07:17;55.30;;;30.40;;
48897;SDS011;34713;50.038;20.000;2024-01-30T07:09:44;62.00;;;35.40;;
48897;SDS011;34713;50.038;20.000;2024-01-30T07:12:11;57.60;;;32.20;;
48897;SDS011;34713;50.038;20.000;2024-01-30T07:14:38;56.50;;;31.70;;
48897;SDS011;34713;50.038;20.000;2024-01-30T07:17:04;64.90;;;34.00;;
48897;SDS011;34713;50.038;20.000;2024-01-30T07:19:32;65.60;;;35.60;;
48897;SDS011;34713;50.038;20.000;2024-01-30T07:21:59;61.20;;;34.80;;
48897;SDS011;34713;50.038;20.000;2024-01-30T07:24:26;64.00;;;34.60;;
48897;SDS011;34713;50.038;20.000;2024-01-30T07:26:53;62.00;;;34.50;;
48897;SDS011;34713;50.038;20.000;2024-01-30T07:29:20;66.90;;;35.10;;
48897;SDS011;34713;50.038;20.000;2024-01-30T07:31:46;57.70;;;33.20;;
48897;SDS011;34713;50.038;20.000;2024-01-30T07:34:13;63.20;;;34.30;;
48897;SDS011;34713;50.038;20.000;2024-01-30T07:36:39;63.50;;;35.70;;
48897;SDS011;34713;50.038;20.000;2024-01-30T07:39:06;64.20;;;36.70;;
48897;SDS011;34713;50.038;20.000;2024-01-30T07:41:33;65.10;;;34.90;;
48897;SDS011;34713;50.038;20.000;2024-01-30T07:44:00;61.70;;;35.00;;
48897;SDS011;34713;50.038;20.000;2024-01-30T07:46:26;68.10;;;35.40;;
48897;SDS011;34713;50.038;20.000;2024-01-30T07:48:53;64.80;;;35.70;;
48897;SDS011;34713;50.038;20.000;2024-01-30T07:51:19;64.70;;;36.60;;
48897;SDS011;34713;50.038;20.000;2024-01-30T07:53:46;63.80;;;36.10;;
48897;SDS011;34713;50.038;20.000;2024-01-30T07:56:13;65.30;;;37.50;;
48897;SDS011;34713;50.038;20.000;2024-01-30T07:58:40;68.70;;;37.70;;
48897;SDS011;34713;50.038;20.000;2024-01-30T08:01:06;70.90;;;39.00;;
48897;SDS011;34713;50.038;20.000;2024-01-30T08:03:33;71.50;;;38.50;;
48897;SDS011;34713;50.038;20.000;2024-01-30T08:06:00;67.90;;;38.20;;
48897;SDS011;34713;50.038;20.000;2024-01-30T08:08:27;71.50;;;40.80;;
48897;SDS011;34713;50.038;20.000;2024-01-30T08:10:54;78.50;;;44.20;;
48897;SDS011;34713;50.038;20.000;2024-01-30T08:13:21;74.40;;;40.80;;
48897;SDS011;34713;50.038;20.000;2024-01-30T08:15:48;77.10;;;43.30;;
48897;SDS011;34713;50.038;20.000;2024-01-30T08:18:14;73.40;;;41.80;;
48897;SDS011;34713;50.038;20.000;2024-01-30T08:20:52;79.60;;;42.20;;
48897;SDS011;34713;50.038;20.000;2024-01-30T08:23:19;73.50;;;43.10;;
48897;SDS011;34713;50.038;20.000;2024-01-30T08:25:46;73.80;;;42.50;;
48897;SDS011;34713;50.038;20.000;2024-01-30T08:28:21;75.70;;;40.70;;
48897;SDS011;34713;50.038;20.000;2024-01-30T08:30:48;70.20;;;41.30;;
48897;SDS011;34713;50.038;20.000;2024-01-30T08:33:15;67.70;;;42.00;;
48897;SDS011;34713;50.038;20.000;2024-01-30T08:35:41;74.10;;;42.30;;
48897;SDS011;34713;50.038;20.000;2024-01-30T08:38:20;74.40;;;40.80;;
48897;SDS011;34713;50.038;20.000;2024-01-30T08:40:46;71.50;;;42.10;;
48897;SDS011;34713;50.038;20.000;2024-01-30T08:43:13;73.60;;;42.10;;
48897;SDS011;34713;50.038;20.000;2024-01-30T08:45:47;68.80;;;43.00;;
48897;SDS011;34713;50.038;20.000;2024-01-30T08:48:14;78.50;;;40.80;;
48897;SDS011;34713;50.038;20.000;2024-01-30T08:50:53;69.00;;;41.00;;
48897;SDS011;34713;50.038;20.000;2024-01-30T08:53:20;71.50;;;43.50;;
48897;SDS011;34713;50.038;20.000;2024-01-30T08:55:47;74.50;;;43.20;;
48897;SDS011;34713;50.038;20.000;2024-01-30T08:58:14;72.90;;;41.40;;
48897;SDS011;34713;50.038;20.000;2024-01-30T09:00:41;68.10;;;42.60;;
48897;SDS011;34713;50.038;20.000;2024-01-30T09:03:11;77.00;;;43.40;;
48897;SDS011;34713;50.038;20.000;2024-01-30T09:05:41;71.60;;;42.00;;
48897;SDS011;34713;50.038;20.000;2024-01-30T09:08:08;70.20;;;41.60;;
48897;SDS011;34713;50.038;20.000;2024-01-30T09:10:35;78.60;;;42.50;;
48897;SDS011;34713;50.038;20.000;2024-01-30T09:13:01;73.30;;;42.90;;
48897;SDS011;34713;50.038;20.000;2024-01-30T09:15:30;73.60;;;42.10;;
48897;SDS011;34713;50.038;20.000;2024-01-30T09:17:57;77.60;;;43.10;;
48897;SDS011;34713;50.038;20.000;2024-01-30T09:20:24;71.70;;;43.20;;
48897;SDS011;34713;50.038;20.000;2024-01-30T09:22:51;80.90;;;45.10;;
48897;SDS011;34713;50.038;20.000;2024-01-30T09:25:20;74.90;;;44.10;;
48897;SDS011;34713;50.038;20.000;2024-01-30T09:27:46;74.20;;;43.70;;
48897;SDS011;34713;50.038;20.000;2024-01-30T09:30:13;76.50;;;45.30;;
48897;SDS011;34713;50.038;20.000;2024-01-30T09:32:56;78.40;;;44.30;;
48897;SDS011;34713;50.038;20.000;2024-01-30T09:35:23;76.00;;;42.90;;
48897;SDS011;34713;50.038;20.000;2024-01-30T09:37:50;70.60;;;41.60;;
48897;SDS011;34713;50.038;20.000;2024-01-30T09:40:25;72.60;;;43.20;;
48897;SDS011;34713;50.038;20.000;2024-01-30T09:42:52;72.80;;;42.80;;
48897;SDS011;34713;50.038;20.000;2024-01-30T09:45:40;71.80;;;43.10;;
48897;SDS011;34713;50.038;20.000;2024-01-30T09:48:08;68.60;;;42.30;;
48897;SDS011;34713;50.038;20.000;2024-01-30T09:50:35;72.00;;;41.50;;
48897;SDS011;34713;50.038;20.000;2024-01-30T09:53:03;69.60;;;42.40;;
48897;SDS011;34713;50.038;20.000;2024-01-30T09:55:34;80.10;;;42.10;;
48897;SDS011;34713;50.038;20.000;2024-01-30T09:58:02;73.40;;;41.90;;
48897;SDS011;34713;50.038;20.000;2024-01-30T10:00:29;69.40;;;41.40;;
48897;SDS011;34713;50.038;20.000;2024-01-30T10:02:55;67.30;;;40.10;;
48897;SDS011;34713;50.038;20.000;2024-01-30T10:05:22;73.70;;;43.50;;
48897;SDS011;34713;50.038;20.000;2024-01-30T10:07:56;67.50;;;43.60;;
48897;SDS011;34713;50.038;20.000;2024-01-30T10:10:23;68.20;;;40.90;;
48897;SDS011;34713;50.038;20.000;2024-01-30T10:12:50;74.70;;;40.40;;
48897;SDS011;34713;50.038;20.000;2024-01-30T10:15:17;65.00;;;40.50;;
48897;SDS011;34713;50.038;20.000;2024-01-30T10:17:44;72.40;;;43.50;;
48897;SDS011;34713;50.038;20.000;2024-01-30T10:20:12;66.00;;;40.90;;
48897;SDS011;34713;50.038;20.000;2024-01-30T10:22:40;71.10;;;41.40;;
48897;SDS011;34713;50.038;20.000;2024-01-30T10:25:10;68.90;;;41.00;;
48897;SDS011;34713;50.038;20.000;2024-01-30T10:27:45;64.90;;;38.30;;
48897;SDS011;34713;50.038;20.000;2024-01-30T10:30:32;60.90;;;37.70;;
48897;SDS011;34713;50.038;20.000;2024-01-30T10:32:59;62.50;;;37.40;;
48897;SDS011;34713;50.038;20.000;2024-01-30T10:35:29;66.70;;;39.60;;
48897;SDS011;34713;50.038;20.000;2024-01-30T10:38:06;65.00;;;40.30;;
48897;SDS011;34713;50.038;20.000;2024-01-30T10:40:35;64.90;;;40.70;;
48897;SDS011;34713;50.038;20.000;2024-01-30T10:43:03;66.80;;;39.80;;
48897;SDS011;34713;50.038;20.000;2024-01-30T10:45:30;67.70;;;40.00;;
48897;SDS011;34713;50.038;20.000;2024-01-30T10:47:58;80.40;;;42.70;;
48897;SDS011;34713;50.038;20.000;2024-01-30T10:50:26;71.00;;;41.00;;
48897;SDS011;34713;50.038;20.000;2024-01-30T10:52:54;60.50;;;36.30;;
48897;SDS011;34713;50.038;20.000;2024-01-30T10:55:21;59.30;;;37.20;;
48897;SDS011;34713;50.038;20.000;2024-01-30T10:57:50;62.90;;;35.70;;
48897;SDS011;34713;50.038;20.000;2024-01-30T11:00:17;59.50;;;35.10;;
48897;SDS011;34713;50.038;20.000;2024-01-30T11:02:46;56.20;;;32.20;;
48897;SDS011;34713;50.038;20.000;2024-01-30T11:05:20;52.00;;;30.90;;
48897;SDS011;34713;50.038;20.000;2024-01-30T11:07:50;48.50;;;29.40;;
48897;SDS011;34713;50.038;20.000;2024-01-30T11:10:17;46.50;;;28.30;;
48897;SDS011;34713;50.038;20.000;2024-01-30T11:12:45;33.30;;;21.10;;
48897;SDS011;34713;50.038;20.000;2024-01-30T11:18:00;26.40;;;15.30;;
48897;SDS011;34713;50.038;20.000;2024-01-30T11:20:30;28.40;;;15.30;;
48897;SDS011;34713;50.038;20.000;2024-01-30T11:23:02;25.60;;;15.30;;
48897;SDS011;34713;50.038;20.000;2024-01-30T11:25:43;29.00;;;17.00;;
48897;SDS011;34713;50.038;20.000;2024-01-30T11:28:14;28.30;;;16.80;;
48897;SDS011;34713;50.038;20.000;2024-01-30T11:30:42;29.70;;;17.70;;
48897;SDS011;34713;50.038;20.000;2024-01-30T11:35:45;25.50;;;16.60;;
48897;SDS011;34713;50.038;20.000;2024-01-30T11:38:15;33.80;;;17.90;;
48897;SDS011;34713;50.038;20.000;2024-01-30T11:40:42;32.90;;;18.20;;
48897;SDS011;34713;50.038;20.000;2024-01-30T11:43:12;29.00;;;18.60;;
48897;SDS011;34713;50.038;20.000;2024-01-30T11:45:39;31.60;;;17.70;;
48897;SDS011;34713;50.038;20.000;2024-01-30T11:48:07;31.00;;;18.60;;
48897;SDS011;34713;50.038;20.000;2024-01-30T11:50:37;53.50;;;26.90;;
48897;SDS011;34713;50.038;20.000;2024-01-30T11:53:04;45.80;;;27.90;;
48897;SDS011;34713;50.038;20.000;2024-01-30T11:55:31;57.70;;;31.90;;
48897;SDS011;34713;50.038;20.000;2024-01-30T11:57:58;49.80;;;29.90;;
48897;SDS011;34713;50.038;20.000;2024-01-30T12:00:25;54.00;;;30.00;;
48897;SDS011;34713;50.038;20.000;2024-01-30T12:02:52;52.70;;;29.20;;
48897;SDS011;34713;50.038;20.000;2024-01-30T12:05:24;48.60;;;28.40;;
48897;SDS011;34713;50.038;20.000;2024-01-30T12:07:54;50.00;;;27.50;;
48897;SDS011;34713;50.038;20.000;2024-01-30T12:10:21;41.80;;;25.50;;
48897;SDS011;34713;50.038;20.000;2024-01-30T12:12:48;44.70;;;26.40;;
48897;SDS011;34713;50.038;20.000;2024-01-30T12:15:16;41.70;;;24.20;;
48897;SDS011;34713;50.038;20.000;2024-01-30T12:17:43;43.90;;;24.90;;
48897;SDS011;34713;50.038;20.000;2024-01-30T12:20:11;46.00;;;25.80;;
48897;SDS011;34713;50.038;20.000;2024-01-30T12:22:45;45.40;;;25.30;;
48897;SDS011;34713;50.038;20.000;2024-01-30T12:25:15;38.00;;;25.00;;
48897;SDS011;34713;50.038;20.000;2024-01-30T12:27:44;38.60;;;23.40;;
48897;SDS011;34713;50.038;20.000;2024-01-30T12:30:12;43.50;;;24.30;;
48897;SDS011;34713;50.038;20.000;2024-01-30T12:32:40;58.20;;;30.90;;
48897;SDS011;34713;50.038;20.000;2024-01-30T12:35:11;58.50;;;31.10;;
48897;SDS011;34713;50.038;20.000;2024-01-30T12:37:42;51.10;;;30.60;;
48897;SDS011;34713;50.038;20.000;2024-01-30T12:40:10;51.90;;;30.10;;
48897;SDS011;34713;50.038;20.000;2024-01-30T12:42:39;55.50;;;30.60;;
48897;SDS011;34713;50.038;20.000;2024-01-30T12:45:09;60.10;;;29.40;;
48897;SDS011;34713;50.038;20.000;2024-01-30T12:47:36;56.40;;;29.70;;
48897;SDS011;34713;50.038;20.000;2024-01-30T12:50:03;55.90;;;29.70;;
48897;SDS011;34713;50.038;20.000;2024-01-30T12:52:32;53.20;;;29.30;;
48897;SDS011;34713;50.038;20.000;2024-01-30T12:54:59;52.00;;;29.10;;
48897;SDS011;34713;50.038;20.000;2024-01-30T12:57:26;54.00;;;30.90;;
48897;SDS011;34713;50.038;20.000;2024-01-30T12:59:52;45.00;;;28.60;;
48897;SDS011;34713;50.038;20.000;2024-01-30T13:02:19;50.10;;;26.80;;
48897;SDS011;34713;50.038;20.000;2024-01-30T13:04:47;44.60;;;25.60;;
48897;SDS011;34713;50.038;20.000;2024-01-30T13:07:13;50.70;;;29.10;;
48897;SDS011;34713;50.038;20.000;2024-01-30T13:09:47;57.40;;;29.80;;
48897;SDS011;34713;50.038;20.000;2024-01-30T13:12:14;57.10;;;31.50;;
48897;SDS011;34713;50.038;20.000;2024-01-30T13:20:34;53.30;;;30.10;;
48897;SDS011;34713;50.038;20.000;2024-01-30T13:23:03;52.20;;;28.90;;
48897;SDS011;34713;50.038;20.000;2024-01-30T13:25:30;50.70;;;28.70;;
48897;SDS011;34713;50.038;20.000;2024-01-30T13:27:57;52.40;;;29.10;;
48897;SDS011;34713;50.038;20.000;2024-01-30T13:30:23;49.80;;;30.80;;
48897;SDS011;34713;50.038;20.000;2024-01-30T13:32:50;45.70;;;28.30;;
48897;SDS011;34713;50.038;20.000;2024-01-30T13:35:22;51.60;;;30.30;;
48897;SDS011;34713;50.038;20.000;2024-01-30T13:37:49;54.80;;;32.30;;
48897;SDS011;34713;50.038;20.000;2024-01-30T13:40:25;58.50;;;32.20;;
48897;SDS011;34713;50.038;20.000;2024-01-30T13:42:52;53.40;;;31.20;;
48897;SDS011;34713;50.038;20.000;2024-01-30T13:45:21;61.00;;;34.20;;
48897;SDS011;34713;50.038;20.000;2024-01-30T13:47:48;54.80;;;32.50;;
48897;SDS011;34713;50.038;20.000;2024-01-30T13:50:17;52.80;;;31.00;;
48897;SDS011;34713;50.038;20.000;2024-01-30T13:52:44;60.50;;;33.80;;
48897;SDS011;34713;50.038;20.000;2024-01-30T13:55:11;56.70;;;31.70;;
48897;SDS011;34713;50.038;20.000;2024-01-30T13:57:48;59.70;;;31.20;;
48897;SDS011;34713;50.038;20.000;2024-01-30T14:00:28;51.90;;;29.80;;
48897;SDS011;34713;50.038;20.000;2024-01-30T14:02:57;50.20;;;30.90;;
48897;SDS011;34713;50.038;20.000;2024-01-30T14:05:53;51.10;;;29.00;;
48897;SDS011;34713;50.038;20.000;2024-01-30T14:08:27;48.30;;;28.80;;
48897;SDS011;34713;50.038;20.000;2024-01-30T14:10:54;57.60;;;33.10;;
48897;SDS011;34713;50.038;20.000;2024-01-30T14:13:24;61.30;;;31.90;;
48897;SDS011;34713;50.038;20.000;2024-01-30T14:15:51;53.40;;;32.10;;
48897;SDS011;34713;50.038;20.000;2024-01-30T14:18:27;54.10;;;31.90;;
48897;SDS011;34713;50.038;20.000;2024-01-30T14:20:54;51.40;;;30.70;;
48897;SDS011;34713;50.038;20.000;2024-01-30T14:23:23;52.00;;;32.30;;
48897;SDS011;34713;50.038;20.000;2024-01-30T14:25:50;55.80;;;31.10;;